createdAt,value
2022-11-10T00:00:35.700Z,16.60
2022-11-10T00:03:22.284Z,19.20
2022-11-10T00:06:09.306Z,18.20
2022-11-10T00:08:54.997Z,19.60
2022-11-10T00:11:40.952Z,17.30
2022-11-10T00:14:45.063Z,17.80
2022-11-10T00:17:32.487Z,15.70
2022-11-10T00:20:19.038Z,16.60
2022-11-10T00:23:04.715Z,17.60
2022-11-10T00:25:52.989Z,19.70
2022-11-10T00:28:38.900Z,20.80
2022-11-10T00:31:28.734Z,21.30
2022-11-10T00:34:16.004Z,22.50
2022-11-10T00:37:02.929Z,21.80
2022-11-10T00:39:49.412Z,20.90
2022-11-10T00:42:36.200Z,22.50
2022-11-10T00:45:22.024Z,26.80
2022-11-10T00:48:08.999Z,29.00
2022-11-10T00:50:54.713Z,26.40
2022-11-10T00:53:40.775Z,24.70
2022-11-10T00:56:26.856Z,30.10
2022-11-10T00:59:12.504Z,25.70
2022-11-10T01:02:01.276Z,23.20
2022-11-10T01:04:47.351Z,23.00
2022-11-10T01:07:33.095Z,22.60
2022-11-10T01:10:18.973Z,24.40
2022-11-10T01:13:04.708Z,24.30
2022-11-10T01:15:50.850Z,19.30
2022-11-10T01:18:37.268Z,19.60
2022-11-10T01:21:23.202Z,21.20
2022-11-10T01:24:08.963Z,21.40
2022-11-10T01:26:54.753Z,18.20
2022-11-10T01:29:41.227Z,16.60
2022-11-10T01:32:26.791Z,18.70
2022-11-10T01:35:12.321Z,15.10
2022-11-10T01:37:58.894Z,18.10
2022-11-10T01:40:45.302Z,18.30
2022-11-10T01:43:32.260Z,17.50
2022-11-10T01:46:17.993Z,16.70
2022-11-10T01:49:04.204Z,17.10
2022-11-10T01:52:13.749Z,17.10
2022-11-10T01:54:59.612Z,13.70
2022-11-10T01:57:47.125Z,15.10
2022-11-10T02:00:33.660Z,14.90
2022-11-10T02:03:34.734Z,15.50
2022-11-10T02:06:21.051Z,15.60
2022-11-10T02:09:06.922Z,15.90
2022-11-10T02:11:56.977Z,16.90
2022-11-10T02:14:43.427Z,16.50
2022-11-10T02:17:32.299Z,15.60
2022-11-10T02:20:19.183Z,20.50
2022-11-10T02:23:15.787Z,20.80
2022-11-10T02:26:02.950Z,25.50
2022-11-10T02:28:49.024Z,19.80
2022-11-10T02:31:34.843Z,18.50
2022-11-10T02:34:20.863Z,16.30
2022-11-10T02:37:06.671Z,23.40
2022-11-10T02:39:52.780Z,17.70
2022-11-10T02:42:38.378Z,25.50
2022-11-10T02:45:24.716Z,24.00
2022-11-10T02:48:11.226Z,24.30
2022-11-10T02:50:56.881Z,27.20
2022-11-10T02:53:44.259Z,21.20
2022-11-10T02:56:30.147Z,21.90
2022-11-10T02:59:15.837Z,23.80
2022-11-10T03:02:02.454Z,25.40
2022-11-10T03:04:48.261Z,25.90
2022-11-10T03:07:34.212Z,28.40
2022-11-10T03:10:20.034Z,28.50
2022-11-10T03:13:09.452Z,23.40
2022-11-10T03:15:56.471Z,26.90
2022-11-10T03:18:42.344Z,24.00
2022-11-10T03:21:28.032Z,24.40
2022-11-10T03:24:14.084Z,25.60
2022-11-10T03:26:59.813Z,28.90
2022-11-10T03:29:45.616Z,33.80
2022-11-10T03:32:31.527Z,29.30
2022-11-10T03:35:17.460Z,31.80
2022-11-10T03:38:03.988Z,32.80
2022-11-10T03:41:17.711Z,37.00
2022-11-10T03:43:56.844Z,38.40
2022-11-10T03:46:43.594Z,44.10
2022-11-10T03:49:31.510Z,44.80
2022-11-10T03:52:16.980Z,29.20
2022-11-10T03:55:03.712Z,30.30
2022-11-10T03:57:49.742Z,22.60
2022-11-10T04:00:36.412Z,20.90
2022-11-10T04:03:22.303Z,21.70
2022-11-10T04:06:27.544Z,23.10
2022-11-10T04:09:16.346Z,22.00
2022-11-10T04:12:25.033Z,15.90
2022-11-10T04:15:30.540Z,17.90
2022-11-10T04:18:21.909Z,16.50
2022-11-10T04:21:07.498Z,20.10
2022-11-10T04:23:53.581Z,19.20
2022-11-10T04:26:40.738Z,19.30
2022-11-10T04:29:26.731Z,20.10
2022-11-10T04:32:12.373Z,16.60
2022-11-10T04:34:58.374Z,17.30
2022-11-10T04:37:43.969Z,19.10
2022-11-10T04:40:29.916Z,21.00
2022-11-10T04:43:15.806Z,25.00
2022-11-10T04:46:02.037Z,24.70
2022-11-10T04:48:50.011Z,23.40
2022-11-10T04:51:37.317Z,17.60
2022-11-10T04:54:23.913Z,18.60
2022-11-10T04:57:09.689Z,18.30
2022-11-10T04:59:55.242Z,20.30
2022-11-10T05:02:41.125Z,20.20
2022-11-10T05:05:26.826Z,20.60
2022-11-10T05:08:12.799Z,20.50
2022-11-10T05:10:59.345Z,20.40
2022-11-10T05:13:47.293Z,21.90
2022-11-10T05:16:33.549Z,29.90
2022-11-10T05:19:19.412Z,32.40
2022-11-10T05:22:07.036Z,31.30
2022-11-10T05:24:53.741Z,31.40
2022-11-10T05:27:39.821Z,28.80
2022-11-10T05:30:26.452Z,22.80
2022-11-10T05:33:11.869Z,25.50
2022-11-10T05:35:57.416Z,26.20
2022-11-10T05:38:44.040Z,30.00
2022-11-10T05:41:29.922Z,31.90
2022-11-10T05:44:15.606Z,32.10
2022-11-10T05:47:02.549Z,27.70
2022-11-10T05:49:49.017Z,21.40
2022-11-10T05:52:35.426Z,20.50
2022-11-10T05:55:22.959Z,21.60
2022-11-10T05:58:09.132Z,23.50
2022-11-10T06:00:54.948Z,24.50
2022-11-10T06:03:40.635Z,25.10
2022-11-10T06:06:27.010Z,25.80
2022-11-10T06:09:13.496Z,19.90
2022-11-10T06:11:59.096Z,21.50
2022-11-10T06:14:47.565Z,21.20
2022-11-10T06:17:34.562Z,22.80
2022-11-10T06:20:20.201Z,25.70
2022-11-10T06:23:06.101Z,26.30
2022-11-10T06:25:52.479Z,37.50
2022-11-10T06:28:38.594Z,33.10
2022-11-10T06:31:24.375Z,29.40
2022-11-10T06:34:10.008Z,28.00
2022-11-10T06:36:55.808Z,28.60
2022-11-10T06:39:41.716Z,30.30
2022-11-10T06:42:27.510Z,34.10
2022-11-10T06:45:13.389Z,37.50
2022-11-10T06:48:00.208Z,26.50
2022-11-10T06:50:46.366Z,28.90
2022-11-10T06:53:33.016Z,34.50
2022-11-10T06:56:19.738Z,30.60
2022-11-10T06:59:05.909Z,30.10
2022-11-10T07:01:51.994Z,33.90
2022-11-10T07:04:37.664Z,37.60
2022-11-10T07:07:23.614Z,24.30
2022-11-10T07:10:14.919Z,26.10
2022-11-10T07:13:01.238Z,25.30
2022-11-10T07:15:46.815Z,22.50
2022-11-10T07:18:32.598Z,23.70
2022-11-10T07:21:19.726Z,29.10
2022-11-10T07:24:05.920Z,29.90
2022-11-10T07:26:51.557Z,25.90
2022-11-10T07:29:37.427Z,26.70
2022-11-10T07:32:22.690Z,24.40
2022-11-10T07:35:08.826Z,25.40
2022-11-10T07:37:55.753Z,28.10
2022-11-10T07:40:41.478Z,25.80
2022-11-10T07:43:28.951Z,27.10
2022-11-10T07:46:14.849Z,20.90
2022-11-10T07:49:00.461Z,22.70
2022-11-10T07:51:47.190Z,27.50
2022-11-10T07:54:33.023Z,27.90
2022-11-10T07:57:19.130Z,29.40
2022-11-10T08:00:05.188Z,28.60
2022-11-10T08:02:51.425Z,32.60
2022-11-10T08:05:37.677Z,23.10
2022-11-10T08:08:23.242Z,22.60
2022-11-10T08:11:10.532Z,22.80
2022-11-10T08:13:57.256Z,24.40
2022-11-10T08:16:42.397Z,27.90
2022-11-10T08:19:29.732Z,30.60
2022-11-10T08:22:15.619Z,28.60
2022-11-10T08:25:02.274Z,21.70
2022-11-10T08:27:48.083Z,23.50
2022-11-10T08:30:35.343Z,25.50
2022-11-10T08:33:21.939Z,25.80
2022-11-10T08:36:09.372Z,35.40
2022-11-10T08:38:55.037Z,46.00
2022-11-10T08:41:41.204Z,47.10
2022-11-10T08:44:26.784Z,30.70
2022-11-10T08:47:12.827Z,28.90
2022-11-10T08:49:59.169Z,28.10
2022-11-10T08:52:45.701Z,28.10
2022-11-10T08:55:32.614Z,36.60
2022-11-10T08:58:22.223Z,53.10
2022-11-10T09:01:11.799Z,43.80
2022-11-10T09:03:57.432Z,28.00
2022-11-10T09:06:43.713Z,24.20
2022-11-10T09:09:29.804Z,22.60
2022-11-10T09:12:17.541Z,21.70
2022-11-10T09:15:06.588Z,24.10
2022-11-10T09:17:52.279Z,24.80
2022-11-10T09:20:38.433Z,30.20
2022-11-10T09:23:25.592Z,21.20
2022-11-10T09:26:13.376Z,22.80
2022-11-10T09:28:59.652Z,23.30
2022-11-10T09:31:45.918Z,24.60
2022-11-10T09:34:31.798Z,25.00
2022-11-10T09:37:17.657Z,24.10
2022-11-10T09:40:03.650Z,27.90
2022-11-10T09:42:49.317Z,28.00
2022-11-10T09:45:39.565Z,18.50
2022-11-10T09:48:31.116Z,19.60
2022-11-10T09:51:25.473Z,19.30
2022-11-10T09:54:34.663Z,21.00
2022-11-10T09:57:22.290Z,22.90
2022-11-10T10:00:14.139Z,25.00
2022-11-10T10:03:04.988Z,27.10
2022-11-10T10:09:08.654Z,19.50
2022-11-10T10:11:59.356Z,17.60
2022-11-10T10:14:57.649Z,18.90
2022-11-10T10:17:58.818Z,19.20
2022-11-10T10:24:09.342Z,19.00
2022-11-10T10:26:58.293Z,14.80
2022-11-10T10:29:45.818Z,15.70
2022-11-10T10:32:32.283Z,89.50
2022-11-10T10:35:18.342Z,39.20
2022-11-10T10:38:04.810Z,39.90
2022-11-10T10:40:51.813Z,26.40
2022-11-10T10:43:39.050Z,26.10
2022-11-10T10:46:34.381Z,24.80
2022-11-10T10:49:31.700Z,21.80
2022-11-10T10:52:18.205Z,18.30
2022-11-10T10:55:22.822Z,19.80
2022-11-10T10:58:26.796Z,21.20
2022-11-10T11:01:16.137Z,20.50
2022-11-10T11:04:05.211Z,20.40
2022-11-10T11:06:56.473Z,23.80
2022-11-10T11:09:43.848Z,21.50
2022-11-10T11:12:31.680Z,22.50
2022-11-10T11:15:22.991Z,24.60
2022-11-10T11:18:16.499Z,18.10
2022-11-10T11:21:14.403Z,16.20
2022-11-10T11:24:26.745Z,21.30
2022-11-10T11:27:31.297Z,21.20
2022-11-10T11:30:19.364Z,23.20
2022-11-10T11:33:23.977Z,18.90
2022-11-10T11:36:34.666Z,22.40
2022-11-10T11:39:31.865Z,21.90
2022-11-10T11:42:25.834Z,20.90
2022-11-10T11:45:18.289Z,19.70
2022-11-10T11:48:20.156Z,19.50
2022-11-10T11:51:42.230Z,23.60
2022-11-10T11:54:33.106Z,22.50
2022-11-10T11:57:40.091Z,20.30
2022-11-10T12:00:26.460Z,18.30
2022-11-10T12:03:41.559Z,17.80
2022-11-10T12:06:40.638Z,18.20
2022-11-10T12:09:36.008Z,17.20
2022-11-10T12:12:31.828Z,17.60
2022-11-10T12:15:26.517Z,17.20
2022-11-10T12:18:12.400Z,17.30
2022-11-10T12:21:27.007Z,18.20
2022-11-10T12:24:38.349Z,14.60
2022-11-10T12:27:38.303Z,18.10
2022-11-10T12:30:24.406Z,19.30
2022-11-10T12:33:37.027Z,24.30
2022-11-10T12:36:23.333Z,17.50
2022-11-10T12:39:48.447Z,18.90
2022-11-10T12:42:34.038Z,18.70
2022-11-10T12:45:33.992Z,18.30
2022-11-10T12:48:20.063Z,19.30
2022-11-10T12:51:12.615Z,19.10
2022-11-10T12:53:58.664Z,19.10
2022-11-10T12:56:48.588Z,14.80
2022-11-10T12:59:36.244Z,17.00
2022-11-10T13:02:44.873Z,20.80
2022-11-10T13:05:38.791Z,25.70
2022-11-10T13:08:27.607Z,48.80
2022-11-10T13:11:13.544Z,26.00
2022-11-10T13:14:05.227Z,25.20
2022-11-10T13:16:54.378Z,23.90
2022-11-10T13:22:40.837Z,23.80
2022-11-10T13:25:37.284Z,26.40
2022-11-10T13:28:48.040Z,19.60
2022-11-10T13:31:33.479Z,22.50
2022-11-10T13:34:19.344Z,23.40
2022-11-10T13:37:33.612Z,22.80
2022-11-10T13:40:25.254Z,24.80
2022-11-10T13:43:23.849Z,23.00
2022-11-10T13:46:10.110Z,26.00
2022-11-10T13:49:26.697Z,27.70
2022-11-10T13:52:16.763Z,29.80
2022-11-10T13:55:41.964Z,41.10
2022-11-10T13:58:28.856Z,32.10
2022-11-10T14:01:17.450Z,58.30
2022-11-10T14:04:03.609Z,46.40
2022-11-10T14:06:52.216Z,42.50
2022-11-10T14:09:41.832Z,36.20
2022-11-10T14:12:35.367Z,42.50
2022-11-10T14:15:25.153Z,48.10
2022-11-10T14:18:41.109Z,39.00
2022-11-10T14:21:33.589Z,47.20
2022-11-10T14:24:29.745Z,33.80
2022-11-10T14:27:18.684Z,42.30
2022-11-10T14:30:24.968Z,39.70
2022-11-10T14:33:13.595Z,39.60
2022-11-10T14:36:00.464Z,47.40
2022-11-10T14:38:46.798Z,47.30
2022-11-10T14:41:33.139Z,33.70
2022-11-10T14:44:24.028Z,43.20
2022-11-10T14:47:31.144Z,45.70
2022-11-10T14:50:19.592Z,44.10
2022-11-10T14:53:26.188Z,45.90
2022-11-10T14:56:17.266Z,38.80
2022-11-10T14:59:04.119Z,49.20
2022-11-10T15:01:50.980Z,41.30
2022-11-10T15:04:36.615Z,42.50
2022-11-10T15:07:22.203Z,42.10
2022-11-10T15:10:15.319Z,40.80
2022-11-10T15:13:11.944Z,51.00
2022-11-10T15:16:36.241Z,45.90
2022-11-10T15:19:23.133Z,43.40
2022-11-10T15:22:13.835Z,56.40
2022-11-10T15:25:00.186Z,46.20
2022-11-10T15:28:04.717Z,47.70
2022-11-10T15:30:54.837Z,30.50
2022-11-10T15:33:45.784Z,36.50
2022-11-10T15:36:34.578Z,36.50
2022-11-10T15:39:25.184Z,36.50
2022-11-10T15:42:18.020Z,33.60
2022-11-10T15:45:04.114Z,30.60
2022-11-10T15:47:49.642Z,24.20
2022-11-10T15:50:35.981Z,21.70
2022-11-10T15:53:27.297Z,17.50
2022-11-10T15:56:14.898Z,18.10
2022-11-10T15:59:02.587Z,18.10
2022-11-10T16:01:49.061Z,19.00
2022-11-10T16:04:37.556Z,20.80
2022-11-10T16:07:23.751Z,20.70
2022-11-10T16:10:09.571Z,21.30
2022-11-10T16:12:55.618Z,16.90
2022-11-10T16:15:43.435Z,18.80
2022-11-10T16:18:31.514Z,18.20
2022-11-10T16:21:20.042Z,21.60
2022-11-10T16:24:06.994Z,21.10
2022-11-10T16:26:52.963Z,23.90
2022-11-10T16:29:38.852Z,21.30
2022-11-10T16:32:24.691Z,25.10
2022-11-10T16:35:14.078Z,23.90
2022-11-10T16:37:59.756Z,23.20
2022-11-10T16:40:47.844Z,30.30
2022-11-10T16:43:34.984Z,32.20
2022-11-10T16:46:23.222Z,29.70
2022-11-10T16:49:45.160Z,24.90
2022-11-10T16:52:30.981Z,26.80
2022-11-10T16:55:16.628Z,20.60
2022-11-10T16:58:03.806Z,20.00
2022-11-10T17:00:49.900Z,20.00
2022-11-10T17:03:37.714Z,20.10
2022-11-10T17:06:24.594Z,20.60
2022-11-10T17:09:14.718Z,18.80
2022-11-10T17:12:00.441Z,20.80
2022-11-10T17:14:46.083Z,16.10
2022-11-10T17:17:35.263Z,16.40
2022-11-10T17:20:28.196Z,17.10
2022-11-10T17:23:14.903Z,16.40
2022-11-10T17:26:00.431Z,17.30
2022-11-10T17:28:46.557Z,17.80
2022-11-10T17:31:34.000Z,16.90
2022-11-10T17:34:19.817Z,13.50
2022-11-10T17:37:05.792Z,14.30
2022-11-10T17:39:51.337Z,16.60
2022-11-10T17:42:39.141Z,17.60
2022-11-10T17:45:26.692Z,19.70
2022-11-10T17:48:12.424Z,18.60
2022-11-10T17:50:58.398Z,18.40
2022-11-10T17:53:44.816Z,16.30
2022-11-10T17:56:31.483Z,15.10
2022-11-10T17:59:17.020Z,16.40
2022-11-10T18:02:02.849Z,16.70
2022-11-10T18:04:49.137Z,17.70
2022-11-10T18:07:34.948Z,17.30
2022-11-10T18:10:21.798Z,17.50
2022-11-10T18:13:10.925Z,13.60
2022-11-10T18:16:00.538Z,14.30
2022-11-10T18:18:46.059Z,14.70
2022-11-10T18:21:32.207Z,14.70
2022-11-10T18:24:17.499Z,14.30
2022-11-10T18:27:02.909Z,15.40
2022-11-10T18:29:48.865Z,15.10
2022-11-10T18:32:34.745Z,12.00
2022-11-10T18:35:20.635Z,12.80
2022-11-10T18:38:07.485Z,15.30
2022-11-10T18:40:53.661Z,14.60
2022-11-10T18:43:40.054Z,13.90
2022-11-10T18:46:26.624Z,14.50
2022-11-10T18:49:13.086Z,15.30
2022-11-10T18:51:58.779Z,11.10
2022-11-10T18:54:44.362Z,11.80
2022-11-10T18:57:30.211Z,13.60
2022-11-10T19:00:16.548Z,16.40
2022-11-10T19:03:02.194Z,12.50
2022-11-10T19:05:55.731Z,14.10
2022-11-10T19:08:44.942Z,13.00
2022-11-10T19:11:31.895Z,10.30
2022-11-10T19:14:18.413Z,11.80
2022-11-10T19:17:04.223Z,12.40
2022-11-10T19:19:56.214Z,12.60
2022-11-10T19:25:27.969Z,13.80
2022-11-10T19:28:13.830Z,11.20
2022-11-10T19:31:03.531Z,15.20
2022-11-10T19:33:50.643Z,15.50
2022-11-10T19:36:37.502Z,15.70
2022-11-10T19:39:23.498Z,15.50
2022-11-10T19:42:09.053Z,16.80
2022-11-10T19:44:54.847Z,16.90
2022-11-10T19:47:40.560Z,12.50
2022-11-10T19:50:26.691Z,12.60
2022-11-10T19:53:12.764Z,15.90
2022-11-10T19:56:03.421Z,16.80
2022-11-10T19:58:48.626Z,18.00
2022-11-10T20:01:37.433Z,18.70
2022-11-10T20:04:23.198Z,14.70
2022-11-10T20:07:28.187Z,14.30
2022-11-10T20:10:14.186Z,16.50
2022-11-10T20:12:59.901Z,15.50
2022-11-10T20:15:46.642Z,16.40
2022-11-10T20:20:37.043Z,17.60
2022-11-10T20:23:23.154Z,12.90
2022-11-10T20:26:14.638Z,14.30
2022-11-10T20:29:00.205Z,16.00
2022-11-10T20:31:46.137Z,15.80
2022-11-10T20:34:31.869Z,16.70
2022-11-10T20:37:17.730Z,18.10
2022-11-10T20:40:13.958Z,17.20
2022-11-10T20:43:09.936Z,13.60
2022-11-10T20:45:55.712Z,16.60
2022-11-10T20:48:41.574Z,17.40
2022-11-10T20:51:27.407Z,22.50
2022-11-10T20:54:15.177Z,23.90
2022-11-10T20:57:00.887Z,23.30
2022-11-10T20:59:47.996Z,21.30
2022-11-10T21:02:34.406Z,16.40
2022-11-10T21:05:20.121Z,17.30
2022-11-10T21:08:06.489Z,17.40
2022-11-10T21:10:53.454Z,17.30
2022-11-10T21:13:39.476Z,18.00
2022-11-10T21:16:25.139Z,17.10
2022-11-10T21:19:10.848Z,16.50
2022-11-10T21:21:56.635Z,13.40
2022-11-10T21:24:42.399Z,14.80
2022-11-10T21:27:28.466Z,16.20
2022-11-10T21:30:22.699Z,15.60
2022-11-10T21:33:09.458Z,17.60
2022-11-10T21:35:55.258Z,18.10
2022-11-10T21:38:45.792Z,16.80
2022-11-10T21:41:32.647Z,14.70
2022-11-10T21:44:18.677Z,14.10
2022-11-10T21:47:04.735Z,16.10
2022-11-10T21:49:50.629Z,15.30
2022-11-10T21:52:36.352Z,17.50
2022-11-10T21:55:22.329Z,20.40
2022-11-10T21:58:08.608Z,19.80
2022-11-10T22:01:04.242Z,15.50
2022-11-10T22:03:50.161Z,16.60
2022-11-10T22:06:56.274Z,17.50
2022-11-10T22:10:01.273Z,17.20
2022-11-10T22:13:05.463Z,17.30
2022-11-10T22:16:10.201Z,18.10
2022-11-10T22:18:55.690Z,20.40
2022-11-10T22:21:41.841Z,16.40
2022-11-10T22:24:28.690Z,15.60
2022-11-10T22:27:14.777Z,17.40
2022-11-10T22:30:00.594Z,17.50
2022-11-10T22:32:47.162Z,20.20
2022-11-10T22:35:54.053Z,20.00
2022-11-10T22:38:40.700Z,18.30
2022-11-10T22:41:44.681Z,20.90
2022-11-10T22:44:30.428Z,16.60
2022-11-10T22:47:16.013Z,15.40
2022-11-10T22:50:01.452Z,17.30
2022-11-10T22:52:48.539Z,18.50
2022-11-10T22:55:34.569Z,16.80
2022-11-10T22:58:20.766Z,20.60
2022-11-10T23:01:07.964Z,20.40
2022-11-10T23:03:54.061Z,15.80
2022-11-10T23:06:41.196Z,17.80
2022-11-10T23:09:26.592Z,18.40
2022-11-10T23:12:12.331Z,20.40
2022-11-10T23:14:58.216Z,18.80
2022-11-10T23:17:45.607Z,19.30
2022-11-10T23:20:30.964Z,19.90
2022-11-10T23:23:17.077Z,15.50
2022-11-10T23:26:07.676Z,18.00
2022-11-10T23:28:53.472Z,16.30
2022-11-10T23:31:39.633Z,17.70
2022-11-10T23:34:25.753Z,19.80
2022-11-10T23:37:11.708Z,19.70
2022-11-10T23:40:00.562Z,20.00
2022-11-10T23:42:46.529Z,14.80
2022-11-10T23:45:52.943Z,15.70
2022-11-10T23:48:38.532Z,16.00
2022-11-10T23:51:25.950Z,17.40
2022-11-10T23:54:12.394Z,18.70
2022-11-10T23:56:58.232Z,17.10
2022-11-10T23:59:44.154Z,17.00
